createdAt,value
2023-01-25T00:01:09.902Z,99.90
2023-01-25T00:03:37.748Z,99.90
2023-01-25T00:06:05.752Z,99.90
2023-01-25T00:08:34.857Z,99.90
2023-01-25T00:11:02.610Z,99.90
2023-01-25T00:13:30.408Z,99.90
2023-01-25T00:16:02.526Z,99.90
2023-01-25T00:18:30.335Z,99.90
2023-01-25T00:20:58.145Z,99.90
2023-01-25T00:23:26.018Z,99.90
2023-01-25T00:25:59.294Z,99.90
2023-01-25T00:28:27.137Z,99.90
2023-01-25T00:30:54.904Z,99.90
2023-01-25T00:33:41.124Z,99.90
2023-01-25T00:36:32.842Z,99.90
2023-01-25T00:39:00.661Z,99.90
2023-01-25T00:41:29.863Z,99.90
2023-01-25T00:43:57.836Z,99.90
2023-01-25T00:46:25.621Z,99.90
2023-01-25T00:48:54.572Z,99.90
2023-01-25T00:51:22.736Z,99.90
2023-01-25T00:53:50.686Z,99.90
2023-01-25T00:56:18.649Z,99.90
2023-01-25T00:58:47.909Z,99.90
2023-01-25T01:01:15.841Z,99.90
2023-01-25T01:03:43.667Z,99.90
2023-01-25T01:06:13.220Z,99.90
2023-01-25T01:08:42.687Z,99.90
2023-01-25T01:11:12.143Z,99.90
2023-01-25T01:13:40.695Z,99.90
2023-01-25T01:16:12.764Z,99.90
2023-01-25T01:18:42.794Z,99.90
2023-01-25T01:21:11.343Z,99.90
2023-01-25T01:23:39.600Z,99.90
2023-01-25T01:26:09.644Z,99.90
2023-01-25T01:28:39.343Z,99.90
2023-01-25T01:31:10.307Z,99.90
2023-01-25T01:33:38.233Z,99.90
2023-01-25T01:36:10.191Z,99.90
2023-01-25T01:38:38.212Z,99.90
2023-01-25T01:41:06.519Z,99.90
2023-01-25T01:43:35.259Z,99.90
2023-01-25T01:46:04.657Z,99.90
2023-01-25T01:48:39.155Z,99.90
2023-01-25T01:51:17.127Z,99.90
2023-01-25T01:53:50.810Z,99.90
2023-01-25T01:56:24.328Z,99.90
2023-01-25T01:58:54.771Z,99.90
2023-01-25T02:01:22.691Z,99.90
2023-01-25T02:03:52.557Z,99.90
2023-01-25T02:06:27.478Z,99.90
2023-01-25T02:08:56.422Z,99.90
2023-01-25T02:11:25.043Z,99.90
2023-01-25T02:13:54.506Z,99.90
2023-01-25T02:16:28.342Z,99.90
2023-01-25T02:19:02.076Z,99.90
2023-01-25T02:21:36.445Z,99.90
2023-01-25T02:24:10.335Z,99.90
2023-01-25T02:26:40.228Z,99.90
2023-01-25T02:29:09.680Z,99.90
2023-01-25T02:31:37.944Z,99.90
2023-01-25T02:34:05.856Z,99.90
2023-01-25T02:36:35.630Z,99.90
2023-01-25T02:39:06.612Z,99.90
2023-01-25T02:41:37.296Z,99.90
2023-01-25T02:44:09.273Z,99.90
2023-01-25T02:46:40.025Z,99.90
2023-01-25T02:49:10.094Z,99.90
2023-01-25T02:51:40.678Z,99.90
2023-01-25T02:54:10.907Z,99.90
2023-01-25T02:56:40.649Z,99.90
2023-01-25T02:59:10.187Z,99.90
2023-01-25T03:01:40.388Z,99.90
2023-01-25T03:04:08.522Z,99.90
2023-01-25T03:06:36.988Z,99.90
2023-01-25T03:09:05.849Z,99.90
2023-01-25T03:11:34.274Z,99.90
2023-01-25T03:14:02.226Z,99.90
2023-01-25T03:16:32.204Z,99.90
2023-01-25T03:19:00.077Z,99.90
2023-01-25T03:21:28.223Z,99.90
2023-01-25T03:23:57.752Z,99.90
2023-01-25T03:26:26.761Z,99.90
2023-01-25T03:28:54.740Z,99.90
2023-01-25T03:31:22.715Z,99.90
2023-01-25T03:33:51.916Z,99.90
2023-01-25T03:36:19.787Z,99.90
2023-01-25T03:38:47.601Z,99.90
2023-01-25T03:41:15.391Z,99.90
2023-01-25T03:43:43.141Z,99.90
2023-01-25T03:46:10.904Z,99.90
2023-01-25T03:48:38.677Z,99.90
2023-01-25T03:51:07.926Z,99.90
2023-01-25T03:53:35.799Z,99.90
2023-01-25T03:56:07.167Z,99.90
2023-01-25T03:58:36.152Z,99.90
2023-01-25T04:01:05.778Z,99.90
2023-01-25T04:03:34.692Z,99.90
2023-01-25T04:06:02.908Z,99.90
2023-01-25T04:08:32.236Z,99.90
2023-01-25T04:11:03.351Z,99.90
2023-01-25T04:13:31.418Z,99.90
2023-01-25T04:15:59.175Z,99.90
2023-01-25T04:18:27.086Z,99.90
2023-01-25T04:20:55.796Z,99.90
2023-01-25T04:23:24.906Z,99.90
2023-01-25T04:25:58.425Z,99.90
2023-01-25T04:28:26.341Z,99.90
2023-01-25T04:30:54.798Z,99.90
2023-01-25T04:33:22.587Z,99.90
2023-01-25T04:35:50.761Z,99.90
2023-01-25T04:38:19.164Z,99.90
2023-01-25T04:40:47.432Z,99.90
2023-01-25T04:43:17.553Z,99.90
2023-01-25T04:45:45.520Z,99.90
2023-01-25T04:48:14.506Z,99.90
2023-01-25T04:50:43.624Z,99.90
2023-01-25T04:53:12.681Z,99.90
2023-01-25T04:55:40.822Z,99.90
2023-01-25T04:58:08.574Z,99.90
2023-01-25T05:00:37.714Z,99.90
2023-01-25T05:03:05.686Z,99.90
2023-01-25T05:05:33.494Z,99.90
2023-01-25T05:08:01.256Z,99.90
2023-01-25T05:10:29.022Z,97.10
2023-01-25T05:12:56.830Z,95.80
2023-01-25T05:15:24.640Z,95.20
2023-01-25T05:17:53.837Z,95.40
2023-01-25T05:20:21.659Z,95.00
2023-01-25T05:22:49.453Z,93.70
2023-01-25T05:25:35.006Z,92.00
2023-01-25T05:28:05.922Z,91.80
2023-01-25T05:30:33.920Z,90.70
2023-01-25T05:33:03.097Z,91.00
2023-01-25T05:35:30.939Z,90.20
2023-01-25T05:37:58.960Z,90.70
2023-01-25T05:40:27.260Z,91.30
2023-01-25T05:42:55.993Z,91.10
2023-01-25T05:45:23.804Z,91.30
2023-01-25T05:47:54.130Z,91.20
2023-01-25T05:50:23.845Z,91.00
2023-01-25T05:52:51.967Z,91.20
2023-01-25T05:55:19.857Z,90.80
2023-01-25T05:57:47.666Z,91.30
2023-01-25T06:00:16.344Z,90.90
2023-01-25T06:02:44.266Z,90.80
2023-01-25T06:05:12.183Z,90.90
2023-01-25T06:07:41.284Z,90.80
2023-01-25T06:10:10.498Z,90.90
2023-01-25T06:12:39.652Z,90.90
2023-01-25T06:15:08.658Z,90.70
2023-01-25T06:17:36.612Z,90.90
2023-01-25T06:20:04.797Z,91.30
2023-01-25T06:22:32.534Z,91.20
2023-01-25T06:25:01.717Z,91.70
2023-01-25T06:27:29.668Z,91.70
2023-01-25T06:29:57.478Z,92.00
2023-01-25T06:32:27.217Z,91.70
2023-01-25T06:34:55.014Z,90.80
2023-01-25T06:37:22.951Z,91.00
2023-01-25T06:39:51.049Z,91.80
2023-01-25T06:42:20.282Z,91.90
2023-01-25T06:44:48.042Z,91.90
2023-01-25T06:47:15.938Z,92.30
2023-01-25T06:49:44.024Z,93.10
2023-01-25T06:52:11.823Z,93.30
2023-01-25T06:54:39.644Z,93.40
2023-01-25T06:57:10.224Z,93.80
2023-01-25T06:59:39.382Z,93.60
2023-01-25T07:02:07.405Z,93.40
2023-01-25T07:04:35.499Z,93.40
2023-01-25T07:07:03.306Z,94.30
2023-01-25T07:09:31.164Z,95.00
2023-01-25T07:11:58.968Z,95.80
2023-01-25T07:14:26.736Z,96.50
2023-01-25T07:16:55.885Z,97.50
2023-01-25T07:19:23.681Z,97.90
2023-01-25T07:21:51.562Z,98.40
2023-01-25T07:24:20.863Z,98.60
2023-01-25T07:26:49.274Z,98.90
2023-01-25T07:29:17.589Z,99.00
2023-01-25T07:31:45.574Z,98.90
2023-01-25T07:34:15.169Z,97.70
2023-01-25T07:36:44.649Z,96.90
2023-01-25T07:39:12.621Z,96.10
2023-01-25T07:41:41.420Z,96.80
2023-01-25T07:44:10.869Z,97.60
2023-01-25T07:46:38.651Z,97.30
2023-01-25T07:49:06.448Z,96.70
2023-01-25T07:51:35.592Z,96.80
2023-01-25T07:54:05.181Z,97.30
2023-01-25T07:56:35.408Z,97.20
2023-01-25T07:59:03.753Z,96.90
2023-01-25T08:01:34.241Z,97.00
2023-01-25T08:04:03.759Z,96.90
2023-01-25T08:06:35.419Z,96.50
2023-01-25T08:09:06.705Z,97.50
2023-01-25T08:11:34.852Z,97.00
2023-01-25T08:14:03.250Z,96.10
2023-01-25T08:16:32.439Z,96.10
2023-01-25T08:19:01.988Z,95.90
2023-01-25T08:21:31.693Z,95.00
2023-01-25T08:24:00.477Z,94.20
2023-01-25T08:26:30.083Z,93.90
2023-01-25T08:28:58.213Z,94.50
2023-01-25T08:31:27.999Z,93.30
2023-01-25T08:33:56.537Z,91.70
2023-01-25T08:36:25.001Z,92.20
2023-01-25T08:38:55.888Z,92.70
2023-01-25T08:41:24.463Z,92.30
2023-01-25T08:43:55.161Z,92.20
2023-01-25T08:46:24.300Z,92.40
2023-01-25T08:48:55.170Z,91.80
2023-01-25T08:51:23.387Z,91.30
2023-01-25T08:53:51.204Z,91.10
2023-01-25T08:56:19.521Z,91.60
2023-01-25T08:58:48.834Z,91.20
2023-01-25T09:01:19.389Z,91.40
2023-01-25T09:03:48.742Z,90.60
2023-01-25T09:06:17.703Z,90.50
2023-01-25T09:08:45.486Z,90.40
2023-01-25T09:11:16.015Z,90.30
2023-01-25T09:13:44.412Z,91.30
2023-01-25T09:16:14.673Z,90.10
2023-01-25T09:18:45.360Z,89.80
2023-01-25T09:21:15.241Z,89.40
2023-01-25T09:23:51.037Z,88.60
2023-01-25T09:26:20.002Z,87.50
2023-01-25T09:28:49.145Z,88.50
2023-01-25T09:31:22.323Z,87.70
2023-01-25T09:33:52.856Z,87.90
2023-01-25T09:36:21.198Z,88.40
2023-01-25T09:38:49.442Z,88.50
2023-01-25T09:41:39.944Z,88.80
2023-01-25T09:44:25.147Z,89.30
2023-01-25T09:46:56.976Z,89.60
2023-01-25T09:49:42.824Z,89.90
2023-01-25T09:52:29.247Z,89.10
2023-01-25T09:54:58.823Z,87.90
2023-01-25T09:57:32.110Z,88.40
2023-01-25T10:00:05.625Z,88.10
2023-01-25T10:02:41.121Z,87.60
2023-01-25T10:05:17.407Z,88.30
2023-01-25T10:07:55.843Z,88.80
2023-01-25T10:10:30.798Z,90.40
2023-01-25T10:12:58.763Z,91.50
2023-01-25T10:15:32.842Z,90.90
2023-01-25T10:18:05.079Z,91.40
2023-01-25T10:20:40.465Z,91.10
2023-01-25T10:23:34.975Z,91.40
2023-01-25T10:26:08.598Z,91.80
2023-01-25T10:28:42.258Z,91.30
2023-01-25T10:31:18.523Z,91.10
2023-01-25T10:33:48.958Z,91.30
2023-01-25T10:36:22.572Z,91.70
2023-01-25T10:38:52.114Z,91.10
2023-01-25T10:41:27.001Z,89.70
2023-01-25T10:44:19.964Z,90.50
2023-01-25T10:46:51.988Z,90.10
2023-01-25T10:49:24.838Z,90.60
2023-01-25T10:51:54.076Z,89.50
2023-01-25T10:54:24.024Z,90.10
2023-01-25T10:56:53.377Z,90.60
2023-01-25T10:59:25.108Z,90.50
2023-01-25T11:01:53.097Z,90.80
2023-01-25T11:04:30.417Z,91.10
2023-01-25T11:07:00.676Z,90.50
2023-01-25T11:09:39.883Z,89.90
2023-01-25T11:12:19.282Z,90.10
2023-01-25T11:14:50.549Z,90.40
2023-01-25T11:17:27.440Z,89.80
2023-01-25T11:20:17.163Z,90.50
2023-01-25T11:22:54.359Z,90.20
2023-01-25T11:25:31.012Z,89.90
2023-01-25T11:28:12.935Z,89.70
2023-01-25T11:30:40.814Z,90.70
2023-01-25T11:33:12.594Z,90.10
2023-01-25T11:35:52.671Z,90.10
2023-01-25T11:38:24.361Z,89.60
2023-01-25T11:40:58.631Z,89.60
2023-01-25T11:43:54.377Z,89.20
2023-01-25T11:46:32.637Z,89.90
2023-01-25T11:49:18.474Z,88.90
2023-01-25T11:51:53.992Z,88.40
2023-01-25T11:54:43.332Z,88.80
2023-01-25T11:57:25.630Z,88.70
2023-01-25T12:00:11.851Z,88.50
2023-01-25T12:03:23.049Z,88.70
2023-01-25T12:06:01.634Z,88.70
2023-01-25T12:08:44.509Z,88.20
2023-01-25T12:11:21.824Z,88.20
2023-01-25T12:13:59.792Z,89.00
2023-01-25T12:16:44.732Z,88.90
2023-01-25T12:19:37.183Z,89.50
2023-01-25T12:22:21.930Z,89.60
2023-01-25T12:24:58.620Z,89.50
2023-01-25T12:27:39.608Z,89.70
2023-01-25T12:30:17.558Z,89.80
2023-01-25T12:32:50.018Z,89.40
2023-01-25T12:35:33.455Z,89.50
2023-01-25T12:38:05.359Z,89.90
2023-01-25T12:40:46.289Z,90.10
2023-01-25T12:43:19.824Z,90.00
2023-01-25T12:45:49.995Z,89.20
2023-01-25T12:48:22.029Z,89.30
2023-01-25T12:50:55.735Z,90.20
2023-01-25T12:53:28.026Z,91.30
2023-01-25T12:55:56.949Z,91.10
2023-01-25T12:58:37.715Z,90.20
2023-01-25T13:01:12.820Z,90.20
2023-01-25T13:03:51.449Z,90.00
2023-01-25T13:06:23.182Z,90.20
2023-01-25T13:08:59.186Z,89.80
2023-01-25T13:11:32.930Z,89.10
2023-01-25T13:14:31.546Z,89.80
2023-01-25T13:17:21.064Z,90.20
2023-01-25T13:19:49.730Z,89.80
2023-01-25T13:22:55.016Z,90.10
2023-01-25T13:25:25.741Z,89.80
2023-01-25T13:27:54.012Z,90.40
2023-01-25T13:30:30.268Z,90.60
2023-01-25T13:33:01.119Z,90.30
2023-01-25T13:35:50.973Z,89.60
2023-01-25T13:38:35.716Z,89.50
2023-01-25T13:41:19.488Z,89.50
2023-01-25T13:44:16.786Z,89.50
2023-01-25T13:46:44.597Z,89.70
2023-01-25T13:49:22.506Z,89.50
2023-01-25T13:51:50.562Z,89.70
2023-01-25T13:54:18.664Z,90.10
2023-01-25T13:56:47.947Z,90.20
2023-01-25T13:59:26.174Z,90.00
2023-01-25T14:01:54.278Z,89.60
2023-01-25T14:04:22.178Z,90.00
2023-01-25T14:06:50.048Z,90.20
2023-01-25T14:09:21.739Z,90.40
2023-01-25T14:11:56.148Z,90.00
2023-01-25T14:14:27.560Z,89.60
2023-01-25T14:17:11.246Z,90.50
2023-01-25T14:19:42.248Z,90.70
2023-01-25T14:22:19.183Z,91.50
2023-01-25T14:24:47.017Z,92.00
2023-01-25T14:27:17.495Z,92.30
2023-01-25T14:29:49.694Z,91.30
2023-01-25T14:32:21.398Z,91.30
2023-01-25T14:34:49.265Z,91.30
2023-01-25T14:37:20.684Z,91.50
2023-01-25T14:39:50.190Z,91.90
2023-01-25T14:42:20.050Z,92.60
2023-01-25T14:44:48.498Z,92.50
2023-01-25T14:47:31.773Z,92.40
2023-01-25T14:50:30.406Z,92.60
2023-01-25T14:52:59.093Z,92.40
2023-01-25T14:55:27.615Z,93.40
2023-01-25T14:58:00.718Z,93.00
2023-01-25T15:00:32.078Z,92.60
2023-01-25T15:03:01.609Z,92.20
2023-01-25T15:05:32.966Z,92.00
2023-01-25T15:08:16.657Z,92.50
2023-01-25T15:10:55.087Z,92.60
2023-01-25T15:13:26.137Z,92.60
2023-01-25T15:15:57.821Z,93.20
2023-01-25T15:18:46.214Z,93.70
2023-01-25T15:21:15.754Z,93.90
2023-01-25T15:23:45.089Z,93.90
2023-01-25T15:26:20.956Z,93.40
2023-01-25T15:28:49.264Z,93.70
2023-01-25T15:31:27.989Z,93.50
2023-01-25T15:33:56.600Z,93.40
2023-01-25T15:36:24.746Z,94.20
2023-01-25T15:38:52.704Z,94.60
2023-01-25T15:41:20.871Z,94.60
2023-01-25T15:43:49.545Z,95.30
2023-01-25T15:46:22.709Z,95.50
2023-01-25T15:48:52.079Z,95.90
2023-01-25T15:51:20.787Z,95.70
2023-01-25T15:53:48.638Z,96.30
2023-01-25T15:56:19.055Z,96.20
2023-01-25T15:58:48.662Z,97.00
2023-01-25T16:01:16.607Z,97.10
2023-01-25T16:03:45.823Z,97.20
2023-01-25T16:06:39.994Z,97.30
2023-01-25T16:09:16.334Z,97.10
2023-01-25T16:11:44.600Z,97.40
2023-01-25T16:14:12.849Z,97.50
2023-01-25T16:16:43.598Z,96.70
2023-01-25T16:19:14.384Z,96.70
2023-01-25T16:21:42.658Z,96.70
2023-01-25T16:24:11.720Z,97.00
2023-01-25T16:26:45.172Z,96.80
2023-01-25T16:29:13.802Z,96.90
2023-01-25T16:31:41.815Z,96.70
2023-01-25T16:34:09.764Z,96.90
2023-01-25T16:36:39.734Z,97.30
2023-01-25T16:39:10.140Z,97.30
2023-01-25T16:41:38.604Z,97.50
2023-01-25T16:44:06.493Z,97.70
2023-01-25T16:46:34.436Z,97.70
2023-01-25T16:49:04.351Z,96.80
2023-01-25T16:51:32.951Z,97.70
2023-01-25T16:54:02.504Z,98.00
2023-01-25T16:56:32.597Z,97.30
2023-01-25T16:59:03.726Z,98.00
2023-01-25T17:01:32.120Z,98.00
2023-01-25T17:04:00.310Z,98.30
2023-01-25T17:06:30.099Z,98.30
2023-01-25T17:09:02.170Z,98.10
2023-01-25T17:11:35.902Z,97.70
2023-01-25T17:14:04.013Z,97.50
2023-01-25T17:16:32.456Z,97.30
2023-01-25T17:19:02.009Z,97.40
2023-01-25T17:21:30.271Z,97.40
2023-01-25T17:23:59.757Z,97.50
2023-01-25T17:26:29.885Z,97.90
2023-01-25T17:29:01.797Z,97.10
2023-01-25T17:31:31.996Z,96.90
2023-01-25T17:34:03.080Z,97.00
2023-01-25T17:36:31.035Z,95.40
2023-01-25T17:39:04.897Z,94.00
2023-01-25T17:41:32.845Z,92.60
2023-01-25T17:44:02.098Z,91.20
2023-01-25T17:46:33.024Z,90.00
2023-01-25T17:49:02.149Z,90.10
2023-01-25T17:51:31.078Z,90.00
2023-01-25T17:53:59.098Z,89.40
2023-01-25T17:56:27.323Z,89.90
2023-01-25T17:58:55.801Z,90.00
2023-01-25T18:01:29.447Z,90.20
2023-01-25T18:03:57.916Z,90.30
2023-01-25T18:06:28.909Z,89.80
2023-01-25T18:08:59.897Z,89.30
2023-01-25T18:11:30.737Z,89.20
2023-01-25T18:14:01.664Z,89.10
2023-01-25T18:16:32.395Z,89.20
2023-01-25T18:19:01.546Z,89.40
2023-01-25T18:21:32.094Z,89.20
2023-01-25T18:24:01.823Z,89.00
2023-01-25T18:26:31.832Z,89.00
2023-01-25T18:29:03.655Z,89.40
2023-01-25T18:31:33.064Z,88.90
2023-01-25T18:34:01.038Z,89.10
2023-01-25T18:36:29.004Z,89.30
2023-01-25T18:38:58.213Z,89.40
2023-01-25T18:41:25.976Z,88.90
2023-01-25T18:43:53.830Z,88.60
2023-01-25T18:46:21.678Z,88.50
2023-01-25T18:48:51.193Z,89.10
2023-01-25T18:51:19.327Z,89.00
2023-01-25T18:53:47.707Z,89.00
2023-01-25T18:56:17.586Z,88.80
2023-01-25T18:58:46.135Z,89.00
2023-01-25T19:01:16.768Z,88.50
2023-01-25T19:03:45.705Z,88.60
2023-01-25T19:06:15.862Z,88.80
2023-01-25T19:08:46.387Z,88.40
2023-01-25T19:11:16.183Z,88.20
2023-01-25T19:13:44.831Z,88.60
2023-01-25T19:16:15.228Z,88.80
2023-01-25T19:18:46.840Z,88.30
2023-01-25T19:21:18.044Z,88.70
2023-01-25T19:23:46.117Z,88.90
2023-01-25T19:26:17.068Z,88.80
2023-01-25T19:28:46.303Z,88.10
2023-01-25T19:31:16.364Z,87.90
2023-01-25T19:33:44.971Z,88.20
2023-01-25T19:36:16.710Z,88.20
2023-01-25T19:38:46.317Z,88.00
2023-01-25T19:41:15.858Z,88.20
2023-01-25T19:43:43.836Z,88.10
2023-01-25T19:46:13.750Z,88.80
2023-01-25T19:48:42.675Z,88.90
2023-01-25T19:51:13.153Z,89.20
2023-01-25T19:53:46.308Z,89.20
2023-01-25T19:56:16.274Z,89.70
2023-01-25T19:58:44.662Z,89.00
2023-01-25T20:01:14.553Z,88.70
2023-01-25T20:03:42.527Z,89.20
2023-01-25T20:06:11.718Z,89.00
2023-01-25T20:08:42.747Z,88.80
2023-01-25T20:11:13.631Z,89.00
2023-01-25T20:13:42.409Z,88.80
2023-01-25T20:16:11.695Z,88.70
2023-01-25T20:18:40.017Z,89.30
2023-01-25T20:21:11.248Z,89.50
2023-01-25T20:23:43.469Z,89.50
2023-01-25T20:26:14.597Z,89.10
2023-01-25T20:28:43.527Z,88.90
2023-01-25T20:31:22.276Z,89.20
2023-01-25T20:33:51.304Z,88.70
2023-01-25T20:36:19.183Z,89.00
2023-01-25T20:38:48.353Z,88.80
2023-01-25T20:41:18.596Z,89.10
2023-01-25T20:43:47.507Z,89.40
2023-01-25T20:46:15.705Z,89.70
2023-01-25T20:48:43.910Z,89.80
2023-01-25T20:51:14.550Z,89.60
2023-01-25T20:53:43.954Z,89.60
2023-01-25T20:56:14.275Z,88.70
2023-01-25T20:58:42.448Z,89.20
2023-01-25T21:01:15.490Z,89.50
2023-01-25T21:03:43.549Z,89.80
2023-01-25T21:06:12.147Z,90.50
2023-01-25T21:08:40.185Z,90.00
2023-01-25T21:11:08.199Z,89.80
2023-01-25T21:13:37.513Z,89.20
2023-01-25T21:16:07.908Z,89.40
2023-01-25T21:18:37.661Z,89.40
2023-01-25T21:21:07.409Z,89.20
2023-01-25T21:23:36.845Z,88.90
2023-01-25T21:26:06.605Z,90.20
2023-01-25T21:28:35.391Z,91.40
2023-01-25T21:31:09.938Z,91.70
2023-01-25T21:33:38.136Z,91.60
2023-01-25T21:36:08.611Z,91.20
2023-01-25T21:38:36.868Z,91.00
2023-01-25T21:41:06.871Z,91.30
2023-01-25T21:43:55.264Z,91.40
2023-01-25T21:46:25.704Z,92.00
2023-01-25T21:49:11.963Z,91.90
2023-01-25T21:51:46.993Z,92.30
2023-01-25T21:54:15.915Z,92.30
2023-01-25T21:56:44.101Z,92.30
2023-01-25T21:59:12.053Z,92.10
2023-01-25T22:01:43.005Z,92.00
2023-01-25T22:04:11.519Z,91.40
2023-01-25T22:06:40.585Z,91.30
2023-01-25T22:09:09.304Z,91.10
2023-01-25T22:11:37.725Z,90.80
2023-01-25T22:14:05.965Z,91.00
2023-01-25T22:16:34.321Z,91.10
2023-01-25T22:19:03.844Z,91.00
2023-01-25T22:21:33.409Z,90.70
2023-01-25T22:24:02.811Z,90.50
2023-01-25T22:26:35.173Z,90.90
2023-01-25T22:29:03.091Z,91.30
2023-01-25T22:31:32.178Z,91.30
2023-01-25T22:34:00.745Z,91.40
2023-01-25T22:36:32.427Z,91.20
2023-01-25T22:39:00.795Z,91.60
2023-01-25T22:41:31.110Z,92.10
2023-01-25T22:43:59.712Z,92.20
2023-01-25T22:46:30.273Z,92.50
2023-01-25T22:48:59.251Z,92.60
2023-01-25T22:51:30.189Z,93.20
2023-01-25T22:53:59.618Z,93.10
2023-01-25T22:56:29.129Z,93.50
2023-01-25T22:58:57.283Z,94.00
2023-01-25T23:01:27.065Z,93.40
2023-01-25T23:03:55.258Z,93.20
2023-01-25T23:06:25.144Z,93.30
2023-01-25T23:08:56.062Z,92.20
2023-01-25T23:11:26.282Z,92.30
2023-01-25T23:14:12.260Z,91.80
2023-01-25T23:16:40.047Z,91.80
2023-01-25T23:19:06.941Z,92.50
2023-01-25T23:21:35.746Z,93.10
2023-01-25T23:24:05.540Z,93.00
2023-01-25T23:26:37.827Z,93.50
2023-01-25T23:29:08.196Z,93.80
2023-01-25T23:31:36.492Z,95.20
2023-01-25T23:34:06.634Z,95.90
2023-01-25T23:36:36.251Z,96.40
2023-01-25T23:39:06.222Z,95.40
2023-01-25T23:41:34.592Z,95.00
2023-01-25T23:44:02.615Z,94.90
2023-01-25T23:46:30.688Z,96.00
2023-01-25T23:48:58.535Z,96.40
2023-01-25T23:51:26.376Z,96.10
2023-01-25T23:53:55.779Z,96.00
2023-01-25T23:56:25.430Z,96.10
2023-01-25T23:58:53.308Z,96.40
